Time;durP1;ratioP1;P1;durP2;ratioP2;P2;SDS_P1;SDS_P2;PMS_P1;PMS_P2;Temp;Humidity;BMP_temperature;BMP_pressure;BME280_temperature;BME280_humidity;BME280_pressure;Samples;Min_cycle;Max_cycle;Signal;HPM_P1;HPM_P2
2022/12/06 00:01:44;;;;;;;6.80;3.63;;;-0.10;99.90;;;;;;4112932;28;20183;-66
2022/12/06 00:03:50;;;;;;;8.77;4.30;;;-0.10;99.90;;;;;;4111095;28;20529;-66
2022/12/06 00:05:50;;;;;;;7.80;4.03;;;0.00;99.90;;;;;;4111285;28;20433;-67
2022/12/06 00:07:51;;;;;;;6.27;3.93;;;0.00;99.90;;;;;;4115710;28;20521;-66
2022/12/06 00:09:52;;;;;;;9.23;4.90;;;0.00;99.90;;;;;;4115361;28;20230;-66
2022/12/06 00:11:54;;;;;;;9.47;4.90;;;0.00;99.90;;;;;;4115946;28;20179;-67
2022/12/06 00:14:01;;;;;;;9.77;5.73;;;0.00;99.90;;;;;;4113969;28;20199;-67
2022/12/06 00:16:09;;;;;;;8.60;5.17;;;0.00;99.90;;;;;;4130542;28;20420;-67
2022/12/06 00:18:09;;;;;;;7.30;4.07;;;0.00;99.90;;;;;;4114582;28;20870;-66
2022/12/06 00:20:10;;;;;;;9.47;4.97;;;0.10;99.90;;;;;;4115952;28;20512;-67
2022/12/06 00:22:11;;;;;;;18.07;7.50;;;0.00;99.90;;;;;;4115677;28;20188;-67
2022/12/06 00:24:20;;;;;;;13.40;5.97;;;0.10;99.90;;;;;;4113783;28;20549;-67
2022/12/06 00:26:22;;;;;;;11.23;5.70;;;0.20;99.90;;;;;;4114132;28;20205;-67
2022/12/06 00:28:22;;;;;;;11.70;6.30;;;0.20;99.90;;;;;;4114508;28;20524;-67
2022/12/06 00:30:23;;;;;;;12.43;6.80;;;0.20;99.90;;;;;;4115395;28;20474;-67
2022/12/06 00:32:24;;;;;;;22.90;7.37;;;0.20;99.90;;;;;;4115497;28;20199;-67
2022/12/06 00:34:25;;;;;;;53.50;8.77;;;0.20;99.90;;;;;;4113664;28;20210;-67
2022/12/06 00:36:31;;;;;;;12.13;6.00;;;0.30;99.90;;;;;;4130242;28;20205;-67
2022/12/06 00:38:33;;;;;;;13.00;6.97;;;0.20;99.90;;;;;;4113885;28;20415;-68
2022/12/06 00:40:34;;;;;;;11.07;5.70;;;0.30;99.90;;;;;;4115600;28;20438;-66
2022/12/06 00:42:35;;;;;;;9.97;5.13;;;0.30;99.90;;;;;;4115122;28;20485;-65
2022/12/06 00:44:35;;;;;;;8.63;5.27;;;0.30;99.90;;;;;;4114938;28;20210;-65
2022/12/06 00:46:38;;;;;;;9.97;5.20;;;0.20;99.90;;;;;;4114414;28;20300;-66
2022/12/06 00:48:39;;;;;;;9.53;5.23;;;0.20;99.90;;;;;;4114014;28;20619;-67
2022/12/06 00:50:40;;;;;;;8.33;4.80;;;0.20;99.90;;;;;;4115284;28;20498;-66
2022/12/06 00:52:41;;;;;;;9.93;5.07;;;0.20;99.90;;;;;;4114812;28;20214;-65
2022/12/06 00:54:41;;;;;;;9.20;5.10;;;0.10;99.90;;;;;;4113895;28;20426;-66
2022/12/06 00:56:42;;;;;;;11.83;5.27;;;0.10;99.90;;;;;;4114892;28;20226;-65
2022/12/06 00:58:43;;;;;;;9.30;5.27;;;-0.10;99.90;;;;;;4114935;28;20298;-66
2022/12/06 01:00:44;;;;;;;9.07;4.93;;;-0.10;99.90;;;;;;4115132;28;20194;-65
2022/12/06 01:02:44;;;;;;;6.80;4.73;;;-0.30;99.90;;;;;;4114351;28;20967;-67
2022/12/06 01:04:45;;;;;;;6.90;4.03;;;-0.30;99.90;;;;;;4115307;28;20222;-66
2022/12/06 01:06:46;;;;;;;7.43;4.73;;;-0.30;99.90;;;;;;4115155;28;20294;-66
2022/12/06 01:08:47;;;;;;;7.90;4.80;;;-0.20;99.90;;;;;;4113681;28;20222;-66
2022/12/06 01:10:53;;;;;;;6.73;4.40;;;-0.30;99.90;;;;;;4113516;28;20265;-65
2022/12/06 01:12:53;;;;;;;7.60;4.60;;;-0.40;99.90;;;;;;4114692;28;20426;-66
2022/12/06 01:14:54;;;;;;;10.97;4.87;;;-0.50;99.90;;;;;;4114921;28;21009;-65
2022/12/06 01:16:54;;;;;;;8.90;4.47;;;-0.60;99.90;;;;;;4114793;28;20554;-66
2022/12/06 01:19:01;;;;;;;9.30;5.07;;;-0.60;99.90;;;;;;4114790;28;20600;-66
2022/12/06 01:21:14;;;;;;;8.10;4.70;;;-0.60;99.90;;;;;;4114583;28;20687;-65
2022/12/06 01:23:15;;;;;;;8.13;4.47;;;-0.70;99.90;;;;;;4112921;28;20556;-66
2022/12/06 01:25:15;;;;;;;8.00;4.83;;;-0.70;99.90;;;;;;4113485;28;20433;-66
2022/12/06 01:27:16;;;;;;;8.67;4.97;;;-0.80;99.90;;;;;;4114479;28;20207;-66
2022/12/06 01:29:17;;;;;;;48.77;8.30;;;-0.70;99.90;;;;;;4114640;28;20578;-66
2022/12/06 01:31:18;;;;;;;15.33;5.60;;;-0.70;99.90;;;;;;4113388;28;20190;-66
2022/12/06 01:33:19;;;;;;;67.70;8.33;;;-0.70;99.90;;;;;;4112716;28;20493;-65
2022/12/06 01:35:20;;;;;;;48.93;8.43;;;-0.80;99.90;;;;;;4114396;28;20437;-66
2022/12/06 01:37:21;;;;;;;181.53;14.90;;;-0.80;99.90;;;;;;4114388;28;20207;-65
2022/12/06 01:39:21;;;;;;;27.47;6.60;;;-0.80;99.90;;;;;;4114605;28;20194;-66
2022/12/06 01:41:25;;;;;;;106.20;12.97;;;-0.70;99.90;;;;;;4114431;28;20912;-66
2022/12/06 01:43:33;;;;;;;49.00;10.00;;;-0.70;99.90;;;;;;4112379;28;20191;-66
2022/12/06 01:45:34;;;;;;;32.60;8.30;;;-0.60;99.90;;;;;;4114550;28;20410;-66
2022/12/06 01:47:39;;;;;;;52.53;11.20;;;-0.60;99.90;;;;;;4114132;28;20521;-65
2022/12/06 01:49:41;;;;;;;94.30;13.30;;;-0.50;99.90;;;;;;4113045;28;20751;-66
2022/12/06 01:51:51;;;;;;;12.33;5.53;;;-0.50;99.90;;;;;;4114482;28;20430;-66
2022/12/06 01:53:53;;;;;;;73.13;12.80;;;-0.40;99.90;;;;;;4113581;28;20430;-66
2022/12/06 01:55:54;;;;;;;98.07;15.93;;;-0.40;99.90;;;;;;4113998;28;20463;-66
2022/12/06 01:58:03;;;;;;;65.00;10.40;;;-0.30;99.90;;;;;;4112822;28;20441;-66
2022/12/06 02:00:05;;;;;;;16.47;7.27;;;-0.30;99.90;;;;;;4112892;28;20233;-66
2022/12/06 02:02:06;;;;;;;11.30;5.57;;;-0.30;99.90;;;;;;4114247;28;20449;-66
2022/12/06 02:04:08;;;;;;;11.13;5.60;;;-0.20;99.90;;;;;;4112133;28;20455;-65
2022/12/06 02:06:09;;;;;;;9.27;5.33;;;-0.30;99.90;;;;;;4114050;28;20438;-67
2022/12/06 02:08:12;;;;;;;15.10;6.47;;;-0.30;99.90;;;;;;4112699;28;20998;-66
2022/12/06 02:10:13;;;;;;;13.27;6.03;;;-0.40;99.90;;;;;;4112776;28;20757;-66
2022/12/06 02:12:14;;;;;;;8.90;5.30;;;-0.40;99.90;;;;;;4113908;28;20458;-65
2022/12/06 02:14:24;;;;;;;16.77;6.20;;;-0.50;99.90;;;;;;4113184;28;20191;-66
2022/12/06 02:17:13;;;;;;;10.50;6.27;;;-0.60;99.90;;;;;;4112844;28;20541;-65
2022/12/06 02:19:35;;;;;;;11.37;5.30;;;-0.60;99.90;;;;;;4111680;28;20453;-66
2022/12/06 02:21:52;;;;;;;15.00;5.97;;;-0.60;99.90;;;;;;4113888;28;21000;-66
2022/12/06 02:24:35;;;;;;;9.50;4.70;;;-0.60;99.90;;;;;;4112099;28;20463;-66
2022/12/06 02:26:44;;;;;;;7.67;4.37;;;-0.70;99.90;;;;;;4113854;28;20453;-67
2022/12/06 02:29:26;;;;;;;12.57;5.30;;;-0.70;99.90;;;;;;4111925;28;20427;-66
2022/12/06 02:31:55;;;;;;;9.17;4.77;;;-0.70;99.90;;;;;;4113877;28;20821;-65
2022/12/06 02:34:26;;;;;;;10.57;6.47;;;-0.70;99.90;;;;;;4112862;28;20465;-66
2022/12/06 02:36:43;;;;;;;14.33;7.10;;;-0.70;99.90;;;;;;4110182;28;20470;-66
2022/12/06 02:39:00;;;;;;;8.60;5.43;;;-0.80;99.90;;;;;;4113735;28;20449;-66
2022/12/06 02:41:09;;;;;;;9.63;5.63;;;-1.00;99.90;;;;;;4112273;28;20433;-66
2022/12/06 02:43:18;;;;;;;14.07;7.87;;;-1.10;99.90;;;;;;4128039;28;20405;-66
2022/12/06 02:45:27;;;;;;;14.23;7.30;;;-1.00;99.90;;;;;;4128927;28;20421;-66
2022/12/06 02:47:33;;;;;;;13.33;7.50;;;-0.90;99.90;;;;;;4112086;28;20938;-66
2022/12/06 02:49:37;;;;;;;12.93;6.73;;;-0.90;99.90;;;;;;4096449;28;20427;-66
2022/12/06 02:51:38;;;;;;;10.40;6.27;;;-0.90;99.90;;;;;;4113477;28;20514;-66
2022/12/06 02:53:46;;;;;;;8.33;5.23;;;-0.90;99.90;;;;;;4105169;28;20458;-66
2022/12/06 02:55:49;;;;;;;9.03;4.93;;;-0.80;99.90;;;;;;4096422;29;21203;-66
2022/12/06 02:57:52;;;;;;;9.33;5.07;;;-0.80;99.90;;;;;;4096181;29;20536;-66
2022/12/06 02:59:53;;;;;;;9.43;4.93;;;-0.70;99.90;;;;;;4097505;28;20949;-66
2022/12/06 03:01:58;;;;;;;10.07;5.23;;;-0.60;99.90;;;;;;4097315;28;20948;-66
2022/12/06 03:04:15;;;;;;;8.77;4.80;;;-0.60;99.90;;;;;;4095472;28;20717;-65
2022/12/06 03:06:45;;;;;;;9.40;5.60;;;-0.50;99.90;;;;;;4097453;28;20554;-66
2022/12/06 03:09:01;;;;;;;8.13;4.77;;;-0.40;99.90;;;;;;4112170;28;20947;-66
2022/12/06 03:11:03;;;;;;;7.07;4.60;;;-0.30;99.90;;;;;;4112156;28;20462;-66
2022/12/06 03:13:17;;;;;;;8.97;4.97;;;-0.40;99.90;;;;;;4097060;28;20427;-65
2022/12/06 03:15:21;;;;;;;10.03;5.30;;;-0.30;99.90;;;;;;4112944;28;20426;-66
2022/12/06 03:17:42;;;;;;;7.20;4.30;;;-0.20;99.90;;;;;;4097429;28;20447;-66
2022/12/06 03:19:55;;;;;;;8.10;5.00;;;-0.20;99.90;;;;;;4097292;28;20490;-66
2022/12/06 03:22:07;;;;;;;7.73;4.40;;;-0.10;99.90;;;;;;4112082;28;20958;-65
2022/12/06 03:24:13;;;;;;;9.17;4.70;;;0.00;99.90;;;;;;4097488;28;20506;-65
2022/12/06 03:26:20;;;;;;;10.03;5.00;;;0.10;99.90;;;;;;4111903;28;20468;-66
2022/12/06 03:28:21;;;;;;;9.93;5.63;;;0.10;99.90;;;;;;4096354;29;20423;-66
2022/12/06 03:30:23;;;;;;;10.03;5.03;;;0.20;99.90;;;;;;4098496;28;20471;-67
2022/12/06 03:32:27;;;;;;;6.80;4.40;;;0.30;99.90;;;;;;4111967;28;20434;-67
2022/12/06 03:34:42;;;;;;;7.17;4.63;;;0.30;99.90;;;;;;4095382;29;20437;-67
2022/12/06 03:36:46;;;;;;;7.97;4.47;;;0.30;99.90;;;;;;4111922;28;20876;-67
2022/12/06 03:39:01;;;;;;;8.47;5.03;;;0.30;99.90;;;;;;4096016;29;20441;-67
2022/12/06 03:41:05;;;;;;;7.27;4.80;;;0.30;99.90;;;;;;4105528;28;20520;-66
2022/12/06 03:43:06;;;;;;;7.63;4.47;;;0.40;99.90;;;;;;4114637;28;20458;-66
2022/12/06 03:45:10;;;;;;;8.07;4.57;;;0.50;99.90;;;;;;4115362;28;20430;-66
2022/12/06 03:47:30;;;;;;;7.10;4.60;;;0.40;99.90;;;;;;4100491;28;20884;-66
2022/12/06 03:49:44;;;;;;;8.37;4.77;;;0.40;99.90;;;;;;4115213;28;20448;-67
2022/12/06 03:51:45;;;;;;;7.97;4.53;;;0.40;99.90;;;;;;4099275;29;20439;-67
2022/12/06 03:53:50;;;;;;;7.47;4.50;;;0.40;99.90;;;;;;4099717;28;21378;-67
2022/12/06 03:55:50;;;;;;;7.50;4.63;;;0.50;99.90;;;;;;4100291;28;20507;-66
2022/12/06 03:57:51;;;;;;;8.70;5.07;;;0.30;99.90;;;;;;4100239;28;20825;-67
2022/12/06 03:59:52;;;;;;;7.57;4.93;;;0.50;99.90;;;;;;4114945;28;20321;-67
2022/12/06 04:01:52;;;;;;;9.53;5.30;;;0.30;99.90;;;;;;4098873;29;20204;-67
2022/12/06 04:03:53;;;;;;;6.63;4.10;;;0.30;99.90;;;;;;4099477;29;20191;-67
2022/12/06 04:05:53;;;;;;;8.10;4.73;;;0.40;99.90;;;;;;4100068;28;20716;-67
2022/12/06 04:07:54;;;;;;;7.13;4.43;;;0.40;99.90;;;;;;4100087;29;20614;-67
2022/12/06 04:10:01;;;;;;;7.63;4.53;;;0.40;99.90;;;;;;4114602;28;20212;-67
2022/12/06 04:12:59;;;;;;;8.10;4.67;;;0.40;99.90;;;;;;4100033;28;20611;-67
2022/12/06 04:14:22;;;;;;;8.17;4.63;;;0.30;99.90;;;;;;4099183;28;20849;-67
2022/12/06 04:18:42;;;;;;;6.10;3.83;;;0.50;99.90;;;;;;4099742;29;20179;-66
2022/12/06 04:23:18;;;;;;;6.37;4.27;;;0.60;99.90;;;;;;4111643;28;20272;-67
2022/12/06 04:25:19;;;;;;;6.83;4.47;;;0.60;99.90;;;;;;4099678;28;20452;-66
2022/12/06 04:38:58;;;;;;;9.20;5.80;;;0.70;99.90;;;;;;4114507;28;20454;-66
2022/12/06 04:40:58;;;;;;;7.43;5.20;;;0.80;99.90;;;;;;4114011;28;20434;-67
2022/12/06 04:45:18;;;;;;;9.37;5.60;;;0.80;99.90;;;;;;4115409;28;20590;-66
2022/12/06 04:47:19;;;;;;;9.00;6.00;;;0.90;99.90;;;;;;4115703;28;20459;-67
2022/12/06 04:49:19;;;;;;;12.57;7.30;;;0.90;99.90;;;;;;4115273;28;20246;-66
2022/12/06 04:51:20;;;;;;;10.27;7.20;;;0.90;99.90;;;;;;4115203;28;20711;-67
2022/12/06 04:53:21;;;;;;;14.10;7.80;;;1.10;99.90;;;;;;4107263;28;20606;-67
2022/12/06 04:55:22;;;;;;;9.13;6.13;;;1.00;99.90;;;;;;4098863;29;20271;-66
2022/12/06 04:57:23;;;;;;;10.60;6.53;;;0.90;99.90;;;;;;4099333;28;20215;-66
2022/12/06 04:59:25;;;;;;;9.63;5.83;;;1.00;99.90;;;;;;4099263;28;20681;-67
2022/12/06 05:01:26;;;;;;;9.77;5.70;;;0.90;99.90;;;;;;4106598;28;20193;-67
2022/12/06 05:03:26;;;;;;;9.47;5.90;;;1.00;99.90;;;;;;4114452;28;20967;-66
2022/12/06 05:05:27;;;;;;;9.30;5.83;;;1.00;99.90;;;;;;4113712;28;20582;-65
2022/12/06 05:07:28;;;;;;;12.03;6.33;;;1.00;99.90;;;;;;4115284;28;20211;-66
2022/12/06 05:09:28;;;;;;;9.20;5.57;;;1.00;99.90;;;;;;4114846;28;20241;-65
2022/12/06 05:11:29;;;;;;;9.07;5.33;;;1.00;99.90;;;;;;4114777;28;20191;-65
2022/12/06 05:13:30;;;;;;;8.83;5.23;;;1.00;99.90;;;;;;4112832;28;20271;-65
2022/12/06 05:15:32;;;;;;;8.97;4.90;;;1.10;99.90;;;;;;4114705;28;20188;-66
2022/12/06 05:17:32;;;;;;;9.80;6.13;;;1.10;99.90;;;;;;4114616;28;20227;-65
2022/12/06 05:19:33;;;;;;;8.27;5.50;;;1.10;99.90;;;;;;4114627;28;20428;-65
2022/12/06 05:21:34;;;;;;;6.90;4.53;;;1.20;99.90;;;;;;4114886;28;20215;-66
2022/12/06 05:23:35;;;;;;;9.67;5.50;;;1.20;99.90;;;;;;4113929;28;20191;-65
2022/12/06 05:25:36;;;;;;;10.67;7.00;;;1.30;99.90;;;;;;4113316;28;20191;-66
2022/12/06 05:27:36;;;;;;;10.47;6.20;;;1.30;99.90;;;;;;4114895;28;21035;-66
2022/12/06 05:29:37;;;;;;;8.03;5.23;;;1.20;99.90;;;;;;4114610;28;20229;-66
2022/12/06 05:31:38;;;;;;;9.97;6.23;;;1.00;99.90;;;;;;4114553;28;20664;-66
2022/12/06 05:33:39;;;;;;;10.13;6.17;;;0.90;99.90;;;;;;4112659;28;20188;-66
2022/12/06 05:35:39;;;;;;;8.97;5.80;;;0.90;99.90;;;;;;4128542;28;20246;-65
2022/12/06 05:37:40;;;;;;;8.93;5.20;;;1.10;99.90;;;;;;4113984;28;20573;-65
2022/12/06 05:39:41;;;;;;;17.33;10.37;;;1.00;99.90;;;;;;4114259;28;20196;-65
2022/12/06 05:41:42;;;;;;;15.17;8.70;;;0.90;99.90;;;;;;4114172;28;20200;-66
2022/12/06 05:43:42;;;;;;;14.67;8.07;;;0.80;99.90;;;;;;4113645;28;20192;-66
2022/12/06 05:45:43;;;;;;;12.77;7.40;;;0.80;99.90;;;;;;4112974;28;20194;-66
2022/12/06 05:47:44;;;;;;;12.47;7.30;;;0.80;99.90;;;;;;4114316;28;20273;-66
2022/12/06 05:49:44;;;;;;;13.77;8.67;;;0.90;99.90;;;;;;4114002;28;20241;-66
2022/12/06 05:51:45;;;;;;;10.33;6.90;;;1.00;99.90;;;;;;4114239;28;20660;-66
2022/12/06 05:53:45;;;;;;;11.53;7.17;;;1.10;99.90;;;;;;4113492;28;20809;-66
2022/12/06 05:55:47;;;;;;;19.70;11.77;;;1.20;99.90;;;;;;4114062;28;20649;-65
2022/12/06 05:57:48;;;;;;;20.33;12.10;;;1.20;99.90;;;;;;4112692;28;20639;-66
2022/12/06 05:59:49;;;;;;;15.00;8.47;;;1.20;99.90;;;;;;4112686;28;20522;-66
2022/12/06 06:01:50;;;;;;;13.13;8.20;;;1.30;99.90;;;;;;4113863;28;20912;-65
2022/12/06 06:03:50;;;;;;;9.30;6.23;;;1.30;99.90;;;;;;4113421;28;20251;-66
2022/12/06 06:05:57;;;;;;;10.70;6.80;;;1.30;99.90;;;;;;4112657;28;20192;-66
2022/12/06 06:07:58;;;;;;;12.67;8.10;;;1.40;99.90;;;;;;4114239;28;20700;-66
2022/12/06 06:09:58;;;;;;;12.97;8.57;;;1.40;99.90;;;;;;4113777;28;20481;-66
2022/12/06 06:11:59;;;;;;;14.10;9.27;;;1.40;99.90;;;;;;4112860;28;20187;-67
2022/12/06 06:14:00;;;;;;;16.93;7.83;;;1.50;99.90;;;;;;4113182;28;20195;-67
2022/12/06 06:16:00;;;;;;;16.57;8.63;;;1.40;99.90;;;;;;4113846;28;20188;-67
2022/12/06 06:18:01;;;;;;;15.40;9.10;;;1.50;99.90;;;;;;4113047;28;20266;-68
2022/12/06 06:20:06;;;;;;;14.83;8.80;;;1.40;99.90;;;;;;4112575;28;20195;-67
2022/12/06 06:22:06;;;;;;;13.97;8.60;;;1.40;99.90;;;;;;4113678;28;20181;-67
2022/12/06 06:24:07;;;;;;;11.33;7.93;;;1.40;99.90;;;;;;4111608;28;20531;-67
2022/12/06 06:26:10;;;;;;;12.23;7.77;;;1.50;99.90;;;;;;4113770;28;20188;-67
2022/12/06 06:28:11;;;;;;;10.80;6.03;;;1.50;99.90;;;;;;4112426;28;20214;-67
2022/12/06 06:30:13;;;;;;;8.93;6.37;;;1.50;99.90;;;;;;4113484;28;20482;-67
2022/12/06 06:32:14;;;;;;;10.60;6.63;;;1.50;99.90;;;;;;4113696;28;20234;-67
2022/12/06 06:34:14;;;;;;;10.83;6.37;;;1.50;99.90;;;;;;4113041;28;20947;-67
2022/12/06 06:36:15;;;;;;;10.60;6.07;;;1.50;99.90;;;;;;4113450;28;20861;-67
2022/12/06 06:38:16;;;;;;;10.67;6.23;;;1.50;99.90;;;;;;4113471;28;20624;-67
2022/12/06 06:40:16;;;;;;;12.77;6.57;;;1.30;99.90;;;;;;4113499;28;20200;-67
2022/12/06 06:42:17;;;;;;;10.67;6.53;;;1.30;99.90;;;;;;4113511;28;20358;-67
2022/12/06 06:44:18;;;;;;;13.03;7.53;;;1.30;99.90;;;;;;4112951;28;20771;-67
2022/12/06 06:46:18;;;;;;;11.87;7.93;;;1.40;99.90;;;;;;4113727;28;20204;-67
2022/12/06 06:48:21;;;;;;;13.60;9.30;;;1.50;99.90;;;;;;4113694;28;20193;-67
2022/12/06 06:50:21;;;;;;;11.97;7.60;;;1.50;99.90;;;;;;4113658;28;20640;-67
2022/12/06 06:52:22;;;;;;;11.47;6.97;;;1.50;99.90;;;;;;4113759;28;20435;-67
2022/12/06 06:54:24;;;;;;;12.43;6.57;;;1.50;99.90;;;;;;4100660;28;20196;-66
2022/12/06 06:56:25;;;;;;;11.73;6.53;;;1.50;99.90;;;;;;4097990;28;20293;-67
2022/12/06 06:58:25;;;;;;;15.47;8.77;;;1.50;99.90;;;;;;4112322;28;20466;-67
2022/12/06 07:00:26;;;;;;;12.27;7.77;;;1.50;99.90;;;;;;4096415;28;20555;-68
2022/12/06 07:02:27;;;;;;;11.53;7.57;;;1.60;99.90;;;;;;4112014;28;20246;-67
2022/12/06 07:04:27;;;;;;;12.10;6.73;;;1.60;99.90;;;;;;4096800;28;20713;-67
2022/12/06 07:06:28;;;;;;;9.30;6.20;;;1.60;99.90;;;;;;4096091;29;20225;-67
2022/12/06 07:08:30;;;;;;;13.30;6.23;;;1.70;99.90;;;;;;4097317;28;20187;-67
2022/12/06 07:10:31;;;;;;;11.50;6.63;;;1.70;99.90;;;;;;4111952;28;20215;-67
2022/12/06 07:12:31;;;;;;;10.70;5.67;;;1.80;99.90;;;;;;4097254;28;20432;-67
2022/12/06 07:14:32;;;;;;;10.43;6.57;;;1.70;99.90;;;;;;4096851;28;20196;-67
2022/12/06 07:16:33;;;;;;;9.53;6.27;;;1.70;99.90;;;;;;4115278;28;20220;-67
2022/12/06 07:18:34;;;;;;;11.63;6.60;;;1.80;99.90;;;;;;4123301;28;20620;-67
2022/12/06 07:20:34;;;;;;;11.90;6.93;;;1.80;99.90;;;;;;4120876;28;20199;-68
2022/12/06 07:22:35;;;;;;;7.67;5.47;;;1.80;99.90;;;;;;4117981;28;20202;-66
2022/12/06 07:24:36;;;;;;;9.17;4.87;;;1.70;99.90;;;;;;4117970;28;20183;-71
2022/12/06 07:26:36;;;;;;;6.63;4.80;;;1.80;99.90;;;;;;4117235;28;20211;-67
2022/12/06 07:28:39;;;;;;;10.80;6.17;;;1.80;99.90;;;;;;4118620;28;20194;-69
2022/12/06 07:30:40;;;;;;;11.17;6.67;;;1.80;99.90;;;;;;4117166;28;20221;-66
2022/12/06 07:32:41;;;;;;;8.20;6.40;;;1.80;99.90;;;;;;4117787;28;20411;-65
2022/12/06 07:34:41;;;;;;;10.83;5.87;;;1.70;99.90;;;;;;4118309;28;20182;-66
2022/12/06 07:36:42;;;;;;;11.07;6.00;;;1.70;99.90;;;;;;4118575;28;20256;-66
2022/12/06 07:38:50;;;;;;;10.63;6.90;;;1.70;99.90;;;;;;4118320;28;20178;-66
2022/12/06 07:40:51;;;;;;;11.87;8.43;;;1.70;99.90;;;;;;4117302;28;20708;-66
2022/12/06 07:45:13;;;;;;;11.77;8.87;;;1.80;99.90;;;;;;4118372;28;20195;-66
2022/12/06 07:47:14;;;;;;;10.47;6.87;;;1.80;99.90;;;;;;4117119;28;20464;-65
2022/12/06 07:49:16;;;;;;;9.20;6.13;;;1.90;99.90;;;;;;4133248;28;20441;-66
2022/12/06 07:51:18;;;;;;;8.93;5.97;;;1.90;99.90;;;;;;4117147;28;20250;-66
2022/12/06 07:53:18;;;;;;;13.00;7.60;;;2.00;99.90;;;;;;4116549;28;20436;-66
2022/12/06 07:55:19;;;;;;;10.37;6.43;;;2.00;99.90;;;;;;4118246;28;20426;-65
2022/12/06 07:57:20;;;;;;;10.37;6.43;;;1.90;99.90;;;;;;4116835;28;20207;-67
2022/12/06 07:59:21;;;;;;;12.20;5.63;;;1.90;99.90;;;;;;4118168;28;20184;-66
2022/12/06 08:01:22;;;;;;;8.53;5.90;;;2.00;99.90;;;;;;4117039;28;21035;-65
2022/12/06 08:03:23;;;;;;;9.30;6.03;;;2.10;99.90;;;;;;4117381;28;20443;-63
2022/12/06 08:05:23;;;;;;;9.27;6.20;;;2.10;99.90;;;;;;4118416;28;20183;-65
2022/12/06 08:07:26;;;;;;;8.10;5.23;;;2.10;99.90;;;;;;4118386;28;20772;-66
2022/12/06 08:09:26;;;;;;;9.57;4.93;;;2.20;99.90;;;;;;4117616;28;20879;-65
2022/12/06 08:11:27;;;;;;;7.60;4.73;;;2.20;99.90;;;;;;4117877;28;20471;-66
2022/12/06 08:13:28;;;;;;;7.23;5.03;;;2.20;99.90;;;;;;4117702;28;20228;-65
2022/12/06 08:15:29;;;;;;;8.33;4.13;;;2.20;99.90;;;;;;4117983;28;20186;-65
2022/12/06 08:17:30;;;;;;;6.57;4.27;;;2.20;99.90;;;;;;4118224;28;20207;-65
2022/12/06 08:19:31;;;;;;;7.63;4.50;;;2.30;99.90;;;;;;4117991;28;20275;-65
2022/12/06 08:21:32;;;;;;;5.83;4.03;;;2.40;99.90;;;;;;4116725;28;20448;-65
2022/12/06 08:23:33;;;;;;;7.60;5.03;;;2.40;99.90;;;;;;4117572;28;20518;-67
2022/12/06 08:25:34;;;;;;;8.93;5.10;;;2.50;99.90;;;;;;4117950;28;20192;-66
2022/12/06 08:27:35;;;;;;;7.57;4.40;;;2.60;99.90;;;;;;4114841;28;20845;-66
2022/12/06 08:29:35;;;;;;;6.37;4.53;;;2.60;99.90;;;;;;4115954;28;20197;-65
2022/12/06 08:31:36;;;;;;;7.23;4.30;;;2.70;99.90;;;;;;4115404;28;20186;-66
2022/12/06 08:33:37;;;;;;;5.00;3.37;;;2.70;99.90;;;;;;4114563;28;20274;-66
2022/12/06 08:35:38;;;;;;;4.60;2.97;;;2.70;99.90;;;;;;4114215;28;20190;-65
2022/12/06 08:37:39;;;;;;;6.13;4.27;;;2.60;99.90;;;;;;4115951;28;20450;-66
2022/12/06 08:39:40;;;;;;;18.23;9.03;;;2.60;99.90;;;;;;4115859;28;20557;-65
2022/12/06 08:41:58;;;;;;;19.13;9.53;;;2.60;99.90;;;;;;4115268;28;20190;-66
2022/12/06 08:44:01;;;;;;;15.40;8.07;;;2.70;99.90;;;;;;4114814;28;20694;-66
2022/12/06 08:46:02;;;;;;;62.80;25.53;;;2.90;99.90;;;;;;4114392;28;20464;-66
2022/12/06 08:48:03;;;;;;;37.13;15.53;;;2.90;99.90;;;;;;4115074;28;20950;-66
2022/12/06 08:50:05;;;;;;;29.30;13.57;;;2.90;99.90;;;;;;4115586;28;20305;-66
2022/12/06 08:52:05;;;;;;;16.40;8.20;;;2.60;99.90;;;;;;4115225;28;20682;-66
2022/12/06 08:54:10;;;;;;;13.73;8.23;;;2.50;99.90;;;;;;4114490;28;20420;-66
2022/12/06 08:56:11;;;;;;;18.83;9.93;;;2.60;99.90;;;;;;4113843;28;20233;-66
2022/12/06 08:58:12;;;;;;;10.70;6.47;;;2.80;99.90;;;;;;4115471;28;20425;-66
2022/12/06 09:00:13;;;;;;;10.27;5.13;;;2.90;99.90;;;;;;4102696;28;20433;-66
2022/12/06 09:02:14;;;;;;;8.53;5.10;;;3.00;99.90;;;;;;4099253;28;20743;-66
2022/12/06 09:04:15;;;;;;;7.77;5.30;;;3.10;99.90;;;;;;4113041;28;20433;-66
2022/12/06 09:06:17;;;;;;;6.27;4.63;;;3.10;99.90;;;;;;4113764;28;20210;-66
2022/12/06 09:08:17;;;;;;;7.87;5.10;;;3.20;99.90;;;;;;4097912;29;20434;-66
2022/12/06 09:10:18;;;;;;;7.67;5.10;;;3.20;99.90;;;;;;4098751;29;20479;-66
2022/12/06 09:12:19;;;;;;;6.57;4.70;;;3.20;99.90;;;;;;4098962;29;20223;-65
2022/12/06 09:14:20;;;;;;;8.37;5.30;;;3.30;99.90;;;;;;4098392;28;20902;-66
2022/12/06 09:16:23;;;;;;;7.87;4.97;;;3.50;99.90;;;;;;4098972;28;20200;-66
2022/12/06 09:18:24;;;;;;;6.43;4.33;;;3.50;99.90;;;;;;4113610;28;20934;-66
2022/12/06 09:20:24;;;;;;;6.93;4.80;;;3.70;99.90;;;;;;4098728;28;20517;-67
2022/12/06 09:22:25;;;;;;;6.47;4.17;;;3.80;99.90;;;;;;4098718;28;20201;-65
2022/12/06 09:24:26;;;;;;;6.40;4.30;;;3.90;99.90;;;;;;4098183;28;20191;-66
2022/12/06 09:26:27;;;;;;;10.27;4.83;;;3.80;99.90;;;;;;4098607;28;20206;-66
2022/12/06 09:28:29;;;;;;;8.80;4.93;;;3.70;99.90;;;;;;4098723;28;20336;-66
2022/12/06 09:30:30;;;;;;;9.43;5.97;;;3.80;99.90;;;;;;4113339;28;20497;-66
2022/12/06 09:32:30;;;;;;;9.87;5.47;;;3.90;99.90;;;;;;4098485;28;20427;-67
2022/12/06 09:34:31;;;;;;;8.77;5.40;;;3.90;99.90;;;;;;4098052;28;20221;-65
2022/12/06 09:36:32;;;;;;;8.17;5.57;;;3.90;99.90;;;;;;4113098;28;20199;-66
2022/12/06 09:38:35;;;;;;;7.60;5.33;;;3.90;99.90;;;;;;4096809;28;20210;-66
2022/12/06 09:41:08;;;;;;;9.67;5.63;;;3.90;99.90;;;;;;4098321;28;20187;-66
2022/12/06 09:43:44;;;;;;;9.63;5.17;;;3.80;99.90;;;;;;4097726;28;20979;-66
2022/12/06 09:46:07;;;;;;;6.80;4.43;;;3.80;99.90;;;;;;4100215;28;20827;-66
2022/12/06 09:49:15;;;;;;;6.50;5.07;;;4.10;99.90;;;;;;4098327;28;20511;-65
2022/12/06 09:51:33;;;;;;;8.33;5.00;;;4.30;99.40;;;;;;4096651;28;20493;-66
2022/12/06 09:54:05;;;;;;;7.10;4.77;;;4.30;99.30;;;;;;4112195;28;20461;-65
2022/12/06 09:56:17;;;;;;;6.43;4.27;;;4.20;99.00;;;;;;4112537;28;20412;-66
2022/12/06 09:59:02;;;;;;;5.80;4.60;;;4.20;99.90;;;;;;4112822;28;20465;-67
2022/12/06 10:01:22;;;;;;;7.30;5.30;;;4.40;99.90;;;;;;4096329;29;20439;-66
2022/12/06 10:03:55;;;;;;;7.50;4.93;;;4.50;99.90;;;;;;4096014;29;20504;-66
2022/12/06 10:06:10;;;;;;;7.23;4.77;;;4.60;99.90;;;;;;4097082;28;20844;-66
2022/12/06 10:08:29;;;;;;;7.20;5.10;;;4.80;99.90;;;;;;4112674;28;20481;-66
2022/12/06 10:10:48;;;;;;;5.50;4.50;;;4.70;99.90;;;;;;4097750;28;20494;-66
2022/12/06 10:13:09;;;;;;;9.00;5.13;;;5.00;99.70;;;;;;4097387;28;20427;-66
2022/12/06 10:15:33;;;;;;;8.23;5.77;;;4.50;99.90;;;;;;4097852;28;20819;-66
2022/12/06 10:18:19;;;;;;;8.47;5.23;;;4.60;99.50;;;;;;4112464;28;20462;-66
2022/12/06 10:20:42;;;;;;;7.57;5.33;;;4.80;98.60;;;;;;4096239;28;20439;-66
2022/12/06 10:23:16;;;;;;;5.67;4.63;;;5.20;98.10;;;;;;4097279;28;20430;-66
2022/12/06 10:25:40;;;;;;;8.63;5.17;;;5.70;99.20;;;;;;4112334;28;20425;-67
2022/12/06 10:28:12;;;;;;;5.30;4.27;;;7.00;95.30;;;;;;4112389;28;20561;-66
2022/12/06 10:30:15;;;;;;;4.67;3.67;;;8.20;92.00;;;;;;4108956;28;20218;-66
2022/12/06 10:32:27;;;;;;;7.40;4.70;;;8.80;80.50;;;;;;4113770;28;20191;-66
2022/12/06 10:34:53;;;;;;;6.10;4.90;;;8.70;78.00;;;;;;4112040;28;20175;-67
2022/12/06 10:36:59;;;;;;;7.33;5.40;;;8.70;80.30;;;;;;4114086;28;20214;-67
2022/12/06 10:39:11;;;;;;;5.43;4.40;;;8.90;82.50;;;;;;4113586;28;20276;-66
2022/12/06 10:41:20;;;;;;;5.73;3.93;;;9.20;74.60;;;;;;4112693;28;20268;-67
2022/12/06 10:43:55;;;;;;;5.50;4.00;;;10.10;74.50;;;;;;4128174;28;20190;-66
2022/12/06 10:48:43;;;;;;;6.13;4.37;;;12.20;62.10;;;;;;4112716;28;20182;-67
2022/12/06 10:51:15;;;;;;;6.17;4.23;;;12.50;59.60;;;;;;4113202;28;20209;-65
2022/12/06 10:53:27;;;;;;;6.30;4.53;;;12.40;59.80;;;;;;4108942;28;20205;-65
2022/12/06 10:55:54;;;;;;;4.70;4.03;;;11.90;58.60;;;;;;4115739;28;20277;-66
2022/12/06 10:58:16;;;;;;;4.97;4.33;;;11.50;60.30;;;;;;4098410;28;20278;-68
2022/12/06 11:00:27;;;;;;;5.77;4.87;;;12.90;57.60;;;;;;4113377;28;20179;-65
2022/12/06 11:02:41;;;;;;;5.73;4.60;;;13.50;54.20;;;;;;4111945;28;20198;-65
2022/12/06 11:04:43;;;;;;;6.90;3.97;;;13.30;55.00;;;;;;4113383;28;20206;-66
2022/12/06 11:06:56;;;;;;;7.23;5.40;;;13.90;55.40;;;;;;4112336;28;20289;-66
2022/12/06 11:09:28;;;;;;;4.80;4.33;;;13.50;55.80;;;;;;4112333;28;20175;-66
2022/12/06 11:11:34;;;;;;;5.57;4.60;;;13.70;57.20;;;;;;4105273;28;20296;-66
2022/12/06 11:13:51;;;;;;;4.87;4.27;;;14.00;53.90;;;;;;4111378;28;20186;-67
2022/12/06 11:16:17;;;;;;;5.87;4.60;;;14.10;55.70;;;;;;4112124;28;20178;-66
2022/12/06 11:18:18;;;;;;;5.27;4.30;;;13.80;52.80;;;;;;4111953;28;20290;-65
2022/12/06 11:20:29;;;;;;;6.50;4.80;;;13.60;54.30;;;;;;4111852;28;20245;-66
2022/12/06 11:23:12;;;;;;;4.23;3.60;;;12.10;60.00;;;;;;4111951;28;20179;-66